Terminal Aerodrome Forecast
Issued by NWS

Home | Current Version | Previous Version | Graphics & Text | Print | Product List | Glossary On
Versions: 1 2 3 4 5 6 7 8 9 10 11 12 13 14 15 16 17 18
000
FTUS43 KICT 312300
TAFHUT
TAF
KHUT 312320Z 0100/0124 18023G33KT P6SM FEW050 SCT120
     FM010100 17018G25KT P6SM VCTS BKN050CB OVC120
     FM010700 18010KT P6SM SCT050 OVC120
     FM011500 35013KT P6SM SCT120=

USA.gov is the U.S. government's official web portal to all federal, state and local government web resources and services.